sensor_id;sensor_type;location;lat;lon;timestamp;P1;durP1;ratioP1;P2;durP2;ratioP2
56670;SDS011;42545;50.054;8.306;2023-08-01T00:01:35;5.65;;;2.80;;
56670;SDS011;42545;50.054;8.306;2023-08-01T00:04:02;3.72;;;2.55;;
56670;SDS011;42545;50.054;8.306;2023-08-01T00:06:29;4.10;;;2.85;;
56670;SDS011;42545;50.054;8.306;2023-08-01T00:08:56;4.40;;;2.72;;
56670;SDS011;42545;50.054;8.306;2023-08-01T00:11:24;4.03;;;2.80;;
56670;SDS011;42545;50.054;8.306;2023-08-01T00:13:51;3.97;;;2.42;;
56670;SDS011;42545;50.054;8.306;2023-08-01T00:16:18;3.63;;;2.47;;
56670;SDS011;42545;50.054;8.306;2023-08-01T00:18:45;3.55;;;2.78;;
56670;SDS011;42545;50.054;8.306;2023-08-01T00:21:14;3.50;;;2.45;;
56670;SDS011;42545;50.054;8.306;2023-08-01T00:23:42;3.67;;;2.33;;
56670;SDS011;42545;50.054;8.306;2023-08-01T00:26:09;3.13;;;2.35;;
56670;SDS011;42545;50.054;8.306;2023-08-01T00:28:38;4.45;;;2.58;;
56670;SDS011;42545;50.054;8.306;2023-08-01T00:31:05;4.18;;;2.60;;
56670;SDS011;42545;50.054;8.306;2023-08-01T00:33:33;4.28;;;2.60;;
56670;SDS011;42545;50.054;8.306;2023-08-01T00:36:01;3.30;;;2.72;;
56670;SDS011;42545;50.054;8.306;2023-08-01T00:38:33;3.90;;;2.70;;
56670;SDS011;42545;50.054;8.306;2023-08-01T00:41:00;4.82;;;2.88;;
56670;SDS011;42545;50.054;8.306;2023-08-01T00:43:27;5.45;;;3.33;;
56670;SDS011;42545;50.054;8.306;2023-08-01T00:45:58;4.30;;;2.90;;
56670;SDS011;42545;50.054;8.306;2023-08-01T00:48:27;5.28;;;3.40;;
56670;SDS011;42545;50.054;8.306;2023-08-01T00:50:55;3.92;;;2.83;;
56670;SDS011;42545;50.054;8.306;2023-08-01T00:53:24;4.20;;;2.95;;
56670;SDS011;42545;50.054;8.306;2023-08-01T00:55:51;4.20;;;2.60;;
56670;SDS011;42545;50.054;8.306;2023-08-01T00:58:19;3.53;;;2.40;;
56670;SDS011;42545;50.054;8.306;2023-08-01T01:00:46;4.22;;;2.60;;
56670;SDS011;42545;50.054;8.306;2023-08-01T01:03:15;4.50;;;3.00;;
56670;SDS011;42545;50.054;8.306;2023-08-01T01:05:47;6.93;;;3.80;;
56670;SDS011;42545;50.054;8.306;2023-08-01T01:08:19;4.78;;;3.10;;
56670;SDS011;42545;50.054;8.306;2023-08-01T01:10:46;4.93;;;2.95;;
56670;SDS011;42545;50.054;8.306;2023-08-01T01:13:13;5.47;;;3.13;;
56670;SDS011;42545;50.054;8.306;2023-08-01T01:15:40;4.53;;;2.90;;
56670;SDS011;42545;50.054;8.306;2023-08-01T01:18:06;6.43;;;3.55;;
56670;SDS011;42545;50.054;8.306;2023-08-01T01:20:35;5.50;;;3.13;;
56670;SDS011;42545;50.054;8.306;2023-08-01T01:23:05;3.47;;;2.60;;
56670;SDS011;42545;50.054;8.306;2023-08-01T01:28:02;4.50;;;2.92;;
56670;SDS011;42545;50.054;8.306;2023-08-01T01:30:31;7.38;;;4.32;;
56670;SDS011;42545;50.054;8.306;2023-08-01T01:32:59;5.85;;;3.53;;
56670;SDS011;42545;50.054;8.306;2023-08-01T01:35:27;5.45;;;3.50;;
56670;SDS011;42545;50.054;8.306;2023-08-01T01:37:56;7.18;;;4.00;;
56670;SDS011;42545;50.054;8.306;2023-08-01T01:40:23;7.63;;;3.88;;
56670;SDS011;42545;50.054;8.306;2023-08-01T01:42:50;7.05;;;3.80;;
56670;SDS011;42545;50.054;8.306;2023-08-01T01:45:17;4.85;;;3.55;;
56670;SDS011;42545;50.054;8.306;2023-08-01T01:47:44;4.88;;;3.30;;
56670;SDS011;42545;50.054;8.306;2023-08-01T01:50:11;4.55;;;3.42;;
56670;SDS011;42545;50.054;8.306;2023-08-01T01:52:38;5.90;;;4.13;;
56670;SDS011;42545;50.054;8.306;2023-08-01T01:55:07;7.00;;;3.90;;
56670;SDS011;42545;50.054;8.306;2023-08-01T01:57:34;5.35;;;3.33;;
56670;SDS011;42545;50.054;8.306;2023-08-01T02:00:02;4.90;;;3.10;;
56670;SDS011;42545;50.054;8.306;2023-08-01T02:02:29;5.07;;;3.10;;
56670;SDS011;42545;50.054;8.306;2023-08-01T02:04:57;5.65;;;2.90;;
56670;SDS011;42545;50.054;8.306;2023-08-01T02:07:23;4.18;;;2.80;;
56670;SDS011;42545;50.054;8.306;2023-08-01T02:09:50;4.47;;;3.00;;
56670;SDS011;42545;50.054;8.306;2023-08-01T02:12:19;5.68;;;3.00;;
56670;SDS011;42545;50.054;8.306;2023-08-01T02:14:45;4.88;;;3.03;;
56670;SDS011;42545;50.054;8.306;2023-08-01T02:17:12;6.65;;;3.47;;
56670;SDS011;42545;50.054;8.306;2023-08-01T02:19:39;5.35;;;3.10;;
56670;SDS011;42545;50.054;8.306;2023-08-01T02:22:06;5.05;;;3.40;;
56670;SDS011;42545;50.054;8.306;2023-08-01T02:24:33;5.85;;;3.40;;
56670;SDS011;42545;50.054;8.306;2023-08-01T02:26:59;5.53;;;3.03;;
56670;SDS011;42545;50.054;8.306;2023-08-01T02:29:28;5.85;;;3.50;;
56670;SDS011;42545;50.054;8.306;2023-08-01T02:31:55;4.78;;;2.85;;
56670;SDS011;42545;50.054;8.306;2023-08-01T02:34:22;3.70;;;2.70;;
56670;SDS011;42545;50.054;8.306;2023-08-01T02:36:49;4.70;;;2.78;;
56670;SDS011;42545;50.054;8.306;2023-08-01T02:39:17;3.75;;;2.30;;
56670;SDS011;42545;50.054;8.306;2023-08-01T02:41:43;4.07;;;2.70;;
56670;SDS011;42545;50.054;8.306;2023-08-01T02:44:11;5.38;;;2.70;;
56670;SDS011;42545;50.054;8.306;2023-08-01T02:46:40;3.45;;;2.35;;
56670;SDS011;42545;50.054;8.306;2023-08-01T02:49:07;3.20;;;2.22;;
56670;SDS011;42545;50.054;8.306;2023-08-01T02:51:35;3.08;;;2.20;;
56670;SDS011;42545;50.054;8.306;2023-08-01T02:54:02;4.05;;;2.58;;
56670;SDS011;42545;50.054;8.306;2023-08-01T02:56:29;3.55;;;2.53;;
56670;SDS011;42545;50.054;8.306;2023-08-01T02:58:56;2.88;;;2.17;;
56670;SDS011;42545;50.054;8.306;2023-08-01T03:01:23;3.30;;;2.22;;
56670;SDS011;42545;50.054;8.306;2023-08-01T03:03:52;3.33;;;2.40;;
56670;SDS011;42545;50.054;8.306;2023-08-01T03:06:19;4.65;;;2.60;;
56670;SDS011;42545;50.054;8.306;2023-08-01T03:08:45;3.70;;;2.60;;
56670;SDS011;42545;50.054;8.306;2023-08-01T03:11:12;4.45;;;2.60;;
56670;SDS011;42545;50.054;8.306;2023-08-01T03:13:40;4.28;;;2.80;;
56670;SDS011;42545;50.054;8.306;2023-08-01T03:16:07;4.50;;;2.58;;
56670;SDS011;42545;50.054;8.306;2023-08-01T03:18:36;5.65;;;3.00;;
56670;SDS011;42545;50.054;8.306;2023-08-01T03:21:04;6.10;;;3.50;;
56670;SDS011;42545;50.054;8.306;2023-08-01T03:23:31;4.93;;;3.03;;
56670;SDS011;42545;50.054;8.306;2023-08-01T03:25:57;5.68;;;3.00;;
56670;SDS011;42545;50.054;8.306;2023-08-01T03:28:24;9.98;;;3.85;;
56670;SDS011;42545;50.054;8.306;2023-08-01T03:30:52;5.50;;;3.08;;
56670;SDS011;42545;50.054;8.306;2023-08-01T03:33:19;4.55;;;3.03;;
56670;SDS011;42545;50.054;8.306;2023-08-01T03:35:46;6.82;;;3.08;;
56670;SDS011;42545;50.054;8.306;2023-08-01T03:38:15;4.88;;;2.75;;
56670;SDS011;42545;50.054;8.306;2023-08-01T03:40:42;3.88;;;2.75;;
56670;SDS011;42545;50.054;8.306;2023-08-01T03:43:09;5.32;;;3.10;;
56670;SDS011;42545;50.054;8.306;2023-08-01T03:45:36;5.85;;;3.25;;
56670;SDS011;42545;50.054;8.306;2023-08-01T03:48:03;5.93;;;2.88;;
56670;SDS011;42545;50.054;8.306;2023-08-01T03:50:30;4.95;;;3.22;;
56670;SDS011;42545;50.054;8.306;2023-08-01T03:52:57;4.35;;;3.15;;
56670;SDS011;42545;50.054;8.306;2023-08-01T03:55:26;5.28;;;2.75;;
56670;SDS011;42545;50.054;8.306;2023-08-01T03:57:53;4.35;;;2.97;;
56670;SDS011;42545;50.054;8.306;2023-08-01T04:00:20;5.07;;;3.22;;
56670;SDS011;42545;50.054;8.306;2023-08-01T04:02:46;7.85;;;3.90;;
56670;SDS011;42545;50.054;8.306;2023-08-01T04:05:14;6.95;;;3.92;;
56670;SDS011;42545;50.054;8.306;2023-08-01T04:07:41;6.40;;;3.90;;
56670;SDS011;42545;50.054;8.306;2023-08-01T04:10:08;9.40;;;4.00;;
56670;SDS011;42545;50.054;8.306;2023-08-01T04:12:37;5.78;;;3.90;;
56670;SDS011;42545;50.054;8.306;2023-08-01T04:15:04;7.90;;;4.30;;
56670;SDS011;42545;50.054;8.306;2023-08-01T04:17:32;7.32;;;3.85;;
56670;SDS011;42545;50.054;8.306;2023-08-01T04:19:59;8.20;;;4.40;;
56670;SDS011;42545;50.054;8.306;2023-08-01T04:22:26;6.72;;;3.88;;
56670;SDS011;42545;50.054;8.306;2023-08-01T04:24:53;5.82;;;3.50;;
56670;SDS011;42545;50.054;8.306;2023-08-01T04:27:20;6.47;;;3.72;;
56670;SDS011;42545;50.054;8.306;2023-08-01T04:29:48;5.60;;;3.25;;
56670;SDS011;42545;50.054;8.306;2023-08-01T04:32:15;5.38;;;3.42;;
56670;SDS011;42545;50.054;8.306;2023-08-01T04:34:42;7.32;;;3.50;;
56670;SDS011;42545;50.054;8.306;2023-08-01T04:37:09;7.18;;;3.35;;
56670;SDS011;42545;50.054;8.306;2023-08-01T04:39:36;5.50;;;3.17;;
56670;SDS011;42545;50.054;8.306;2023-08-01T04:42:04;4.45;;;2.90;;
56670;SDS011;42545;50.054;8.306;2023-08-01T04:44:32;7.75;;;3.42;;
56670;SDS011;42545;50.054;8.306;2023-08-01T04:47:00;6.47;;;2.88;;
56670;SDS011;42545;50.054;8.306;2023-08-01T04:49:27;4.82;;;2.83;;
56670;SDS011;42545;50.054;8.306;2023-08-01T04:51:54;5.10;;;3.00;;
56670;SDS011;42545;50.054;8.306;2023-08-01T04:54:22;4.80;;;2.70;;
56670;SDS011;42545;50.054;8.306;2023-08-01T04:56:49;4.85;;;2.72;;
56670;SDS011;42545;50.054;8.306;2023-08-01T04:59:16;3.85;;;2.53;;
56670;SDS011;42545;50.054;8.306;2023-08-01T05:01:42;4.55;;;2.50;;
56670;SDS011;42545;50.054;8.306;2023-08-01T05:04:11;3.53;;;2.50;;
56670;SDS011;42545;50.054;8.306;2023-08-01T05:06:38;5.50;;;2.53;;
56670;SDS011;42545;50.054;8.306;2023-08-01T05:09:05;5.32;;;2.60;;
56670;SDS011;42545;50.054;8.306;2023-08-01T05:11:32;3.38;;;2.33;;
56670;SDS011;42545;50.054;8.306;2023-08-01T05:13:59;3.72;;;2.10;;
56670;SDS011;42545;50.054;8.306;2023-08-01T05:16:26;3.63;;;2.17;;
56670;SDS011;42545;50.054;8.306;2023-08-01T05:18:53;4.50;;;2.15;;
56670;SDS011;42545;50.054;8.306;2023-08-01T05:21:21;4.50;;;2.10;;
56670;SDS011;42545;50.054;8.306;2023-08-01T05:23:48;3.78;;;2.10;;
56670;SDS011;42545;50.054;8.306;2023-08-01T05:26:15;3.88;;;2.20;;
56670;SDS011;42545;50.054;8.306;2023-08-01T05:28:42;4.30;;;2.47;;
56670;SDS011;42545;50.054;8.306;2023-08-01T05:31:10;4.00;;;2.40;;
56670;SDS011;42545;50.054;8.306;2023-08-01T05:33:37;4.47;;;2.40;;
56670;SDS011;42545;50.054;8.306;2023-08-01T05:36:05;5.30;;;2.22;;
56670;SDS011;42545;50.054;8.306;2023-08-01T05:38:35;3.88;;;2.38;;
56670;SDS011;42545;50.054;8.306;2023-08-01T05:41:02;5.00;;;2.13;;
56670;SDS011;42545;50.054;8.306;2023-08-01T05:43:29;4.80;;;2.25;;
56670;SDS011;42545;50.054;8.306;2023-08-01T05:45:55;4.50;;;2.50;;
56670;SDS011;42545;50.054;8.306;2023-08-01T05:48:22;3.67;;;2.30;;
56670;SDS011;42545;50.054;8.306;2023-08-01T05:50:49;3.45;;;1.85;;
56670;SDS011;42545;50.054;8.306;2023-08-01T05:53:18;3.80;;;1.90;;
56670;SDS011;42545;50.054;8.306;2023-08-01T05:55:46;4.05;;;1.90;;
56670;SDS011;42545;50.054;8.306;2023-08-01T05:58:13;3.00;;;2.03;;
56670;SDS011;42545;50.054;8.306;2023-08-01T06:00:40;2.00;;;1.80;;
56670;SDS011;42545;50.054;8.306;2023-08-01T06:03:06;3.85;;;2.00;;
56670;SDS011;42545;50.054;8.306;2023-08-01T06:05:35;3.47;;;1.75;;
56670;SDS011;42545;50.054;8.306;2023-08-01T06:08:02;2.67;;;1.90;;
56670;SDS011;42545;50.054;8.306;2023-08-01T06:10:29;3.70;;;2.22;;
56670;SDS011;42545;50.054;8.306;2023-08-01T06:12:58;2.45;;;1.70;;
56670;SDS011;42545;50.054;8.306;2023-08-01T06:15:24;3.22;;;1.73;;
56670;SDS011;42545;50.054;8.306;2023-08-01T06:17:51;3.05;;;1.70;;
56670;SDS011;42545;50.054;8.306;2023-08-01T06:20:18;2.58;;;1.38;;
56670;SDS011;42545;50.054;8.306;2023-08-01T06:22:45;2.00;;;1.55;;
56670;SDS011;42545;50.054;8.306;2023-08-01T06:25:12;2.55;;;1.50;;
56670;SDS011;42545;50.054;8.306;2023-08-01T06:27:39;1.83;;;1.17;;
56670;SDS011;42545;50.054;8.306;2023-08-01T06:30:07;1.73;;;1.40;;
56670;SDS011;42545;50.054;8.306;2023-08-01T06:32:35;2.60;;;1.47;;
56670;SDS011;42545;50.054;8.306;2023-08-01T06:35:01;1.73;;;1.30;;
56670;SDS011;42545;50.054;8.306;2023-08-01T06:37:28;2.03;;;1.25;;
56670;SDS011;42545;50.054;8.306;2023-08-01T06:39:56;1.52;;;1.10;;
56670;SDS011;42545;50.054;8.306;2023-08-01T06:42:24;2.75;;;1.10;;
56670;SDS011;42545;50.054;8.306;2023-08-01T06:44:51;2.03;;;1.05;;
56670;SDS011;42545;50.054;8.306;2023-08-01T06:47:20;1.40;;;1.08;;
56670;SDS011;42545;50.054;8.306;2023-08-01T06:49:47;1.05;;;0.85;;
56670;SDS011;42545;50.054;8.306;2023-08-01T06:52:13;1.67;;;1.02;;
56670;SDS011;42545;50.054;8.306;2023-08-01T06:54:40;1.42;;;1.10;;
56670;SDS011;42545;50.054;8.306;2023-08-01T06:57:07;1.23;;;0.93;;
56670;SDS011;42545;50.054;8.306;2023-08-01T06:59:34;1.00;;;0.90;;
56670;SDS011;42545;50.054;8.306;2023-08-01T07:02:01;1.30;;;1.05;;
56670;SDS011;42545;50.054;8.306;2023-08-01T07:04:30;1.10;;;1.00;;
56670;SDS011;42545;50.054;8.306;2023-08-01T07:06:57;1.08;;;0.98;;
56670;SDS011;42545;50.054;8.306;2023-08-01T07:09:23;1.23;;;0.95;;
56670;SDS011;42545;50.054;8.306;2023-08-01T07:11:50;1.10;;;0.80;;
56670;SDS011;42545;50.054;8.306;2023-08-01T07:14:17;1.08;;;0.95;;
56670;SDS011;42545;50.054;8.306;2023-08-01T07:16:44;1.17;;;0.93;;
56670;SDS011;42545;50.054;8.306;2023-08-01T07:19:10;0.90;;;0.80;;
56670;SDS011;42545;50.054;8.306;2023-08-01T07:21:39;1.20;;;1.10;;
56670;SDS011;42545;50.054;8.306;2023-08-01T07:24:06;0.82;;;0.80;;
56670;SDS011;42545;50.054;8.306;2023-08-01T07:26:32;1.02;;;0.80;;
56670;SDS011;42545;50.054;8.306;2023-08-01T07:28:59;1.17;;;0.90;;
56670;SDS011;42545;50.054;8.306;2023-08-01T07:31:26;1.08;;;0.88;;
56670;SDS011;42545;50.054;8.306;2023-08-01T07:33:53;0.80;;;0.80;;
56670;SDS011;42545;50.054;8.306;2023-08-01T07:36:20;0.70;;;0.70;;
56670;SDS011;42545;50.054;8.306;2023-08-01T07:38:49;0.60;;;0.60;;
56670;SDS011;42545;50.054;8.306;2023-08-01T07:41:16;0.82;;;0.70;;
56670;SDS011;42545;50.054;8.306;2023-08-01T07:43:43;0.60;;;0.60;;
56670;SDS011;42545;50.054;8.306;2023-08-01T07:46:10;0.60;;;0.60;;
56670;SDS011;42545;50.054;8.306;2023-08-01T07:48:37;0.70;;;0.70;;
56670;SDS011;42545;50.054;8.306;2023-08-01T07:51:05;0.60;;;0.60;;
56670;SDS011;42545;50.054;8.306;2023-08-01T07:53:32;1.02;;;0.73;;
56670;SDS011;42545;50.054;8.306;2023-08-01T07:56:01;0.77;;;0.77;;
56670;SDS011;42545;50.054;8.306;2023-08-01T07:58:28;0.75;;;0.73;;
56670;SDS011;42545;50.054;8.306;2023-08-01T08:00:55;0.90;;;0.90;;
56670;SDS011;42545;50.054;8.306;2023-08-01T08:03:21;1.10;;;1.00;;
56670;SDS011;42545;50.054;8.306;2023-08-01T08:05:49;1.48;;;1.00;;
56670;SDS011;42545;50.054;8.306;2023-08-01T08:08:16;1.20;;;1.00;;
56670;SDS011;42545;50.054;8.306;2023-08-01T08:10:43;1.33;;;1.00;;
56670;SDS011;42545;50.054;8.306;2023-08-01T08:13:11;1.33;;;1.05;;
56670;SDS011;42545;50.054;8.306;2023-08-01T08:15:38;1.40;;;1.10;;
56670;SDS011;42545;50.054;8.306;2023-08-01T08:18:06;1.38;;;0.95;;
56670;SDS011;42545;50.054;8.306;2023-08-01T08:20:34;1.77;;;1.20;;
56670;SDS011;42545;50.054;8.306;2023-08-01T08:23:08;1.65;;;1.30;;
56670;SDS011;42545;50.054;8.306;2023-08-01T08:25:35;1.27;;;1.13;;
56670;SDS011;42545;50.054;8.306;2023-08-01T08:28:02;1.67;;;1.10;;
56670;SDS011;42545;50.054;8.306;2023-08-01T08:30:31;1.73;;;1.40;;
56670;SDS011;42545;50.054;8.306;2023-08-01T08:32:58;1.73;;;1.60;;
56670;SDS011;42545;50.054;8.306;2023-08-01T08:35:29;1.80;;;1.52;;
56670;SDS011;42545;50.054;8.306;2023-08-01T08:37:55;1.70;;;1.60;;
56670;SDS011;42545;50.054;8.306;2023-08-01T08:40:22;1.67;;;1.58;;
56670;SDS011;42545;50.054;8.306;2023-08-01T08:42:52;2.22;;;1.67;;
56670;SDS011;42545;50.054;8.306;2023-08-01T08:45:19;2.47;;;1.70;;
56670;SDS011;42545;50.054;8.306;2023-08-01T08:47:52;2.33;;;1.65;;
56670;SDS011;42545;50.054;8.306;2023-08-01T08:50:22;2.47;;;1.70;;
56670;SDS011;42545;50.054;8.306;2023-08-01T08:52:50;1.73;;;1.63;;
56670;SDS011;42545;50.054;8.306;2023-08-01T08:55:18;2.03;;;1.83;;
56670;SDS011;42545;50.054;8.306;2023-08-01T08:57:47;2.10;;;1.90;;
56670;SDS011;42545;50.054;8.306;2023-08-01T09:00:17;3.95;;;1.92;;
56670;SDS011;42545;50.054;8.306;2023-08-01T09:02:44;2.42;;;1.70;;
56670;SDS011;42545;50.054;8.306;2023-08-01T09:05:12;1.90;;;1.65;;
56670;SDS011;42545;50.054;8.306;2023-08-01T09:07:42;2.20;;;1.73;;
56670;SDS011;42545;50.054;8.306;2023-08-01T09:10:09;1.67;;;1.58;;
56670;SDS011;42545;50.054;8.306;2023-08-01T09:12:36;2.53;;;1.80;;
56670;SDS011;42545;50.054;8.306;2023-08-01T09:15:04;1.85;;;1.60;;
56670;SDS011;42545;50.054;8.306;2023-08-01T09:17:31;2.13;;;1.80;;
56670;SDS011;42545;50.054;8.306;2023-08-01T09:20:03;3.58;;;1.70;;
56670;SDS011;42545;50.054;8.306;2023-08-01T09:22:42;1.45;;;1.35;;
56670;SDS011;42545;50.054;8.306;2023-08-01T09:25:10;2.05;;;1.60;;
56670;SDS011;42545;50.054;8.306;2023-08-01T09:27:39;1.70;;;1.42;;
56670;SDS011;42545;50.054;8.306;2023-08-01T09:30:07;1.77;;;1.50;;
56670;SDS011;42545;50.054;8.306;2023-08-01T09:35:03;1.60;;;1.25;;
56670;SDS011;42545;50.054;8.306;2023-08-01T09:37:37;1.63;;;1.40;;
56670;SDS011;42545;50.054;8.306;2023-08-01T09:40:08;1.80;;;1.58;;
56670;SDS011;42545;50.054;8.306;2023-08-01T09:42:38;1.88;;;1.60;;
56670;SDS011;42545;50.054;8.306;2023-08-01T09:45:11;1.63;;;1.52;;
56670;SDS011;42545;50.054;8.306;2023-08-01T09:47:39;1.80;;;1.52;;
56670;SDS011;42545;50.054;8.306;2023-08-01T09:50:08;3.60;;;2.05;;
56670;SDS011;42545;50.054;8.306;2023-08-01T09:52:36;2.50;;;1.90;;
56670;SDS011;42545;50.054;8.306;2023-08-01T09:55:04;1.83;;;1.60;;
56670;SDS011;42545;50.054;8.306;2023-08-01T09:57:33;2.78;;;1.67;;
56670;SDS011;42545;50.054;8.306;2023-08-01T10:00:04;2.58;;;1.77;;
56670;SDS011;42545;50.054;8.306;2023-08-01T10:05:01;3.38;;;1.88;;
56670;SDS011;42545;50.054;8.306;2023-08-01T10:07:31;1.90;;;1.67;;
56670;SDS011;42545;50.054;8.306;2023-08-01T10:09:59;3.53;;;1.80;;
56670;SDS011;42545;50.054;8.306;2023-08-01T10:12:26;1.92;;;1.65;;
56670;SDS011;42545;50.054;8.306;2023-08-01T10:14:55;2.22;;;1.60;;
56670;SDS011;42545;50.054;8.306;2023-08-01T10:17:23;3.22;;;2.15;;
56670;SDS011;42545;50.054;8.306;2023-08-01T10:19:51;3.78;;;1.80;;
56670;SDS011;42545;50.054;8.306;2023-08-01T10:22:23;2.08;;;1.50;;
56670;SDS011;42545;50.054;8.306;2023-08-01T10:24:51;3.03;;;1.77;;
56670;SDS011;42545;50.054;8.306;2023-08-01T10:27:19;1.90;;;1.70;;
56670;SDS011;42545;50.054;8.306;2023-08-01T10:29:57;2.72;;;1.90;;
56670;SDS011;42545;50.054;8.306;2023-08-01T10:32:32;2.53;;;1.83;;
56670;SDS011;42545;50.054;8.306;2023-08-01T10:35:00;1.70;;;1.35;;
56670;SDS011;42545;50.054;8.306;2023-08-01T10:37:38;2.85;;;1.67;;
56670;SDS011;42545;50.054;8.306;2023-08-01T10:40:06;2.05;;;1.70;;
56670;SDS011;42545;50.054;8.306;2023-08-01T10:42:37;2.67;;;1.92;;
56670;SDS011;42545;50.054;8.306;2023-08-01T10:45:07;2.60;;;2.00;;
56670;SDS011;42545;50.054;8.306;2023-08-01T10:47:45;3.58;;;2.10;;
56670;SDS011;42545;50.054;8.306;2023-08-01T10:50:13;3.20;;;1.92;;
56670;SDS011;42545;50.054;8.306;2023-08-01T10:52:41;2.50;;;1.80;;
56670;SDS011;42545;50.054;8.306;2023-08-01T10:55:09;2.78;;;2.10;;
56670;SDS011;42545;50.054;8.306;2023-08-01T10:57:38;2.83;;;2.10;;
56670;SDS011;42545;50.054;8.306;2023-08-01T11:00:15;2.28;;;1.50;;
56670;SDS011;42545;50.054;8.306;2023-08-01T11:02:48;1.70;;;1.60;;
56670;SDS011;42545;50.054;8.306;2023-08-01T11:05:17;1.60;;;1.50;;
56670;SDS011;42545;50.054;8.306;2023-08-01T11:07:52;2.30;;;1.90;;
56670;SDS011;42545;50.054;8.306;2023-08-01T11:10:21;2.00;;;1.80;;
56670;SDS011;42545;50.054;8.306;2023-08-01T11:12:48;1.88;;;1.63;;
56670;SDS011;42545;50.054;8.306;2023-08-01T11:15:17;1.73;;;1.50;;
56670;SDS011;42545;50.054;8.306;2023-08-01T11:17:46;5.15;;;1.90;;
56670;SDS011;42545;50.054;8.306;2023-08-01T11:20:15;2.40;;;1.92;;
56670;SDS011;42545;50.054;8.306;2023-08-01T11:22:52;2.53;;;1.70;;
56670;SDS011;42545;50.054;8.306;2023-08-01T11:25:30;1.77;;;1.67;;
56670;SDS011;42545;50.054;8.306;2023-08-01T11:28:01;1.95;;;1.63;;
56670;SDS011;42545;50.054;8.306;2023-08-01T11:30:32;2.10;;;1.85;;
56670;SDS011;42545;50.054;8.306;2023-08-01T11:32:59;2.10;;;1.75;;
56670;SDS011;42545;50.054;8.306;2023-08-01T11:35:27;3.97;;;1.80;;
56670;SDS011;42545;50.054;8.306;2023-08-01T11:37:54;2.88;;;2.45;;
56670;SDS011;42545;50.054;8.306;2023-08-01T11:40:23;4.97;;;2.10;;
56670;SDS011;42545;50.054;8.306;2023-08-01T11:42:51;3.70;;;1.80;;
56670;SDS011;42545;50.054;8.306;2023-08-01T11:45:23;3.90;;;2.10;;
56670;SDS011;42545;50.054;8.306;2023-08-01T11:47:52;2.97;;;1.80;;
56670;SDS011;42545;50.054;8.306;2023-08-01T11:50:21;3.95;;;1.80;;
56670;SDS011;42545;50.054;8.306;2023-08-01T11:52:49;3.22;;;1.90;;
56670;SDS011;42545;50.054;8.306;2023-08-01T11:55:20;2.90;;;1.67;;
56670;SDS011;42545;50.054;8.306;2023-08-01T11:57:51;3.30;;;1.90;;
56670;SDS011;42545;50.054;8.306;2023-08-01T12:00:23;3.50;;;1.90;;
56670;SDS011;42545;50.054;8.306;2023-08-01T12:02:52;2.53;;;1.73;;
56670;SDS011;42545;50.054;8.306;2023-08-01T12:05:29;3.13;;;2.00;;
56670;SDS011;42545;50.054;8.306;2023-08-01T12:08:07;3.22;;;1.80;;
56670;SDS011;42545;50.054;8.306;2023-08-01T12:10:36;3.20;;;1.80;;
56670;SDS011;42545;50.054;8.306;2023-08-01T12:13:04;2.53;;;1.80;;
56670;SDS011;42545;50.054;8.306;2023-08-01T12:15:31;1.92;;;1.50;;
56670;SDS011;42545;50.054;8.306;2023-08-01T12:17:59;2.67;;;1.85;;
56670;SDS011;42545;50.054;8.306;2023-08-01T12:20:26;5.38;;;2.20;;
56670;SDS011;42545;50.054;8.306;2023-08-01T12:22:53;3.50;;;2.13;;
56670;SDS011;42545;50.054;8.306;2023-08-01T12:25:19;4.35;;;2.30;;
56670;SDS011;42545;50.054;8.306;2023-08-01T12:27:46;4.45;;;2.38;;
56670;SDS011;42545;50.054;8.306;2023-08-01T12:30:15;3.88;;;2.17;;
56670;SDS011;42545;50.054;8.306;2023-08-01T12:32:42;2.20;;;1.70;;
56670;SDS011;42545;50.054;8.306;2023-08-01T12:35:10;3.20;;;2.00;;
56670;SDS011;42545;50.054;8.306;2023-08-01T12:37:37;4.15;;;2.10;;
56670;SDS011;42545;50.054;8.306;2023-08-01T12:40:05;3.67;;;2.17;;
56670;SDS011;42545;50.054;8.306;2023-08-01T12:42:33;3.17;;;2.30;;
56670;SDS011;42545;50.054;8.306;2023-08-01T12:45:00;3.85;;;2.50;;
56670;SDS011;42545;50.054;8.306;2023-08-01T12:47:27;4.00;;;2.47;;
56670;SDS011;42545;50.054;8.306;2023-08-01T12:49:53;3.88;;;2.33;;
56670;SDS011;42545;50.054;8.306;2023-08-01T12:52:25;4.38;;;2.05;;
56670;SDS011;42545;50.054;8.306;2023-08-01T12:54:53;3.78;;;2.00;;
56670;SDS011;42545;50.054;8.306;2023-08-01T12:57:20;2.75;;;1.88;;
56670;SDS011;42545;50.054;8.306;2023-08-01T12:59:46;2.95;;;1.90;;
56670;SDS011;42545;50.054;8.306;2023-08-01T13:02:13;3.33;;;1.90;;
56670;SDS011;42545;50.054;8.306;2023-08-01T13:04:40;3.22;;;1.98;;
56670;SDS011;42545;50.054;8.306;2023-08-01T13:07:07;2.47;;;1.50;;
56670;SDS011;42545;50.054;8.306;2023-08-01T13:09:36;2.42;;;1.70;;
56670;SDS011;42545;50.054;8.306;2023-08-01T13:12:03;2.35;;;1.60;;
56670;SDS011;42545;50.054;8.306;2023-08-01T13:14:31;6.05;;;1.67;;
56670;SDS011;42545;50.054;8.306;2023-08-01T13:16:58;3.63;;;1.83;;
56670;SDS011;42545;50.054;8.306;2023-08-01T13:19:25;1.83;;;1.35;;
56670;SDS011;42545;50.054;8.306;2023-08-01T13:21:52;2.28;;;1.50;;
56670;SDS011;42545;50.054;8.306;2023-08-01T13:24:19;3.03;;;1.65;;
56670;SDS011;42545;50.054;8.306;2023-08-01T13:26:48;2.15;;;1.50;;
56670;SDS011;42545;50.054;8.306;2023-08-01T13:29:15;3.42;;;1.45;;
56670;SDS011;42545;50.054;8.306;2023-08-01T13:31:42;3.70;;;1.52;;
56670;SDS011;42545;50.054;8.306;2023-08-01T13:34:09;4.60;;;1.75;;
56670;SDS011;42545;50.054;8.306;2023-08-01T13:36:36;3.28;;;1.50;;
56670;SDS011;42545;50.054;8.306;2023-08-01T13:39:05;4.07;;;1.48;;
56670;SDS011;42545;50.054;8.306;2023-08-01T13:41:31;3.45;;;1.30;;
56670;SDS011;42545;50.054;8.306;2023-08-01T13:44:00;3.13;;;1.50;;
56670;SDS011;42545;50.054;8.306;2023-08-01T13:46:27;3.20;;;1.42;;
56670;SDS011;42545;50.054;8.306;2023-08-01T13:48:54;2.95;;;1.13;;
56670;SDS011;42545;50.054;8.306;2023-08-01T13:51:21;2.05;;;1.38;;
56670;SDS011;42545;50.054;8.306;2023-08-01T13:53:47;2.47;;;1.08;;
56670;SDS011;42545;50.054;8.306;2023-08-01T13:56:14;5.40;;;1.30;;
56670;SDS011;42545;50.054;8.306;2023-08-01T13:58:41;3.40;;;1.10;;
56670;SDS011;42545;50.054;8.306;2023-08-01T14:01:09;1.83;;;1.13;;
56670;SDS011;42545;50.054;8.306;2023-08-01T14:03:37;1.42;;;1.20;;
56670;SDS011;42545;50.054;8.306;2023-08-01T14:06:05;5.65;;;1.25;;
56670;SDS011;42545;50.054;8.306;2023-08-01T14:08:32;3.42;;;1.10;;
56670;SDS011;42545;50.054;8.306;2023-08-01T14:11:00;2.45;;;1.30;;
56670;SDS011;42545;50.054;8.306;2023-08-01T14:13:27;3.72;;;1.85;;
56670;SDS011;42545;50.054;8.306;2023-08-01T14:15:54;4.22;;;1.67;;
56670;SDS011;42545;50.054;8.306;2023-08-01T14:18:23;2.65;;;1.55;;
56670;SDS011;42545;50.054;8.306;2023-08-01T14:20:50;3.05;;;1.40;;
56670;SDS011;42545;50.054;8.306;2023-08-01T14:23:18;3.03;;;1.58;;
56670;SDS011;42545;50.054;8.306;2023-08-01T14:25:45;2.00;;;1.38;;
56670;SDS011;42545;50.054;8.306;2023-08-01T14:28:12;2.70;;;1.58;;
56670;SDS011;42545;50.054;8.306;2023-08-01T14:30:39;2.65;;;1.55;;
56670;SDS011;42545;50.054;8.306;2023-08-01T14:33:07;2.60;;;1.50;;
56670;SDS011;42545;50.054;8.306;2023-08-01T14:35:36;2.85;;;1.52;;
56670;SDS011;42545;50.054;8.306;2023-08-01T14:38:03;3.28;;;1.83;;
56670;SDS011;42545;50.054;8.306;2023-08-01T14:40:30;2.75;;;1.58;;
56670;SDS011;42545;50.054;8.306;2023-08-01T14:42:59;2.75;;;1.60;;
56670;SDS011;42545;50.054;8.306;2023-08-01T14:45:26;4.80;;;1.50;;
56670;SDS011;42545;50.054;8.306;2023-08-01T14:47:53;1.85;;;1.30;;
56670;SDS011;42545;50.054;8.306;2023-08-01T14:50:20;2.20;;;1.30;;
56670;SDS011;42545;50.054;8.306;2023-08-01T14:52:49;1.92;;;1.20;;
56670;SDS011;42545;50.054;8.306;2023-08-01T14:55:16;2.20;;;1.20;;
56670;SDS011;42545;50.054;8.306;2023-08-01T14:57:43;2.40;;;1.30;;
56670;SDS011;42545;50.054;8.306;2023-08-01T15:00:11;2.53;;;1.20;;